メインページ
METAR-TAF:

METAR-TAF

空港 :

Quesnel, ブリティッシュコロンビア州, カナダ

緯度: 53-02N, 経度: 122-31W, 海抜: 545m

現時点の気象観測

当レポートは1時間7分前の17:00(UTC)に作成
変向風 4kt
気温 21°C
湿度 46%
気圧 1019 hPa
視程: 12.9km
晴天

METAR: CYQZ 161700Z AUTO VRB04KT 8SM CLR 21/09 A3010 RMK SLP198 DENSITY ALT 2700FT

時間: 11:07 (18:07 UTC)

予報

当レポートは6時間29分前の11:38(UTC)に作成
予報は16日の 12時(UTC)から 16日の 24時(UTC)まで有効
変向風 3kt
視程: 10km
晴天
16日の 16時(UTC)から 16日の 18時(UTC)まで徐々に
南/南東の風 7kt

TAF: CYQZ 161138Z 1612/1624 VRB03KT P6SM SKC BECMG 1616/1618 16007KT RMK FCST BASED ON AUTO OBS. NXT FCST BY 161900Z

4,000以上の空港の気象観測と天気予報(METAR報とTAF報)

利用可能な観測所は地図上に黄色い丸と赤い丸で示す。

丸の上にカーソルを重ねると観測所名を参照できる。

次にクリックすると気象観測と天気予報を参照できる。

マップの切り替え:黒色「×」印の緑ボタンをクリックして拡大、「-」印の緑ボタンをクリックして縮小、緑色の三角印をクリックして隣りの地図に切り替え


METAR-TAF: